sensor_id;sensor_type;location;lat;lon;timestamp;temperature;humidity
7574;DHT22;3828;48.922;9.116;2022-07-04T00:00:11;21.80;99.90
7574;DHT22;3828;48.922;9.116;2022-07-04T00:02:41;21.00;99.90
7574;DHT22;3828;48.922;9.116;2022-07-04T00:05:10;21.00;99.90
7574;DHT22;3828;48.922;9.116;2022-07-04T00:07:38;21.10;99.90
7574;DHT22;3828;48.922;9.116;2022-07-04T00:10:05;21.10;99.90
7574;DHT22;3828;48.922;9.116;2022-07-04T00:12:33;21.10;99.90
7574;DHT22;3828;48.922;9.116;2022-07-04T00:15:00;21.00;99.90
7574;DHT22;3828;48.922;9.116;2022-07-04T00:17:28;24.00;99.90
7574;DHT22;3828;48.922;9.116;2022-07-04T00:19:55;20.90;99.90
7574;DHT22;3828;48.922;9.116;2022-07-04T00:22:24;20.90;99.90
7574;DHT22;3828;48.922;9.116;2022-07-04T00:24:52;20.90;99.90
7574;DHT22;3828;48.922;9.116;2022-07-04T00:27:19;20.90;99.90
7574;DHT22;3828;48.922;9.116;2022-07-04T00:29:45;20.90;99.90
7574;DHT22;3828;48.922;9.116;2022-07-04T00:32:13;22.80;99.90
7574;DHT22;3828;48.922;9.116;2022-07-04T00:34:40;23.00;99.90
7574;DHT22;3828;48.922;9.116;2022-07-04T00:37:17;22.30;99.90
7574;DHT22;3828;48.922;9.116;2022-07-04T00:39:45;20.50;99.90
7574;DHT22;3828;48.922;9.116;2022-07-04T00:42:20;20.60;99.90
7574;DHT22;3828;48.922;9.116;2022-07-04T00:45:12;20.50;99.90
7574;DHT22;3828;48.922;9.116;2022-07-04T00:47:39;20.50;99.90
7574;DHT22;3828;48.922;9.116;2022-07-04T00:50:07;21.60;99.90
7574;DHT22;3828;48.922;9.116;2022-07-04T00:52:34;20.40;99.90
7574;DHT22;3828;48.922;9.116;2022-07-04T00:55:04;20.40;99.90
7574;DHT22;3828;48.922;9.116;2022-07-04T00:57:32;20.40;99.90
7574;DHT22;3828;48.922;9.116;2022-07-04T00:59:59;20.40;99.90
7574;DHT22;3828;48.922;9.116;2022-07-04T01:02:26;23.20;99.90
7574;DHT22;3828;48.922;9.116;2022-07-04T01:04:55;20.30;99.90
7574;DHT22;3828;48.922;9.116;2022-07-04T01:07:22;20.10;99.90
7574;DHT22;3828;48.922;9.116;2022-07-04T01:09:49;21.40;99.90
7574;DHT22;3828;48.922;9.116;2022-07-04T01:12:26;21.60;99.90
7574;DHT22;3828;48.922;9.116;2022-07-04T01:14:53;20.20;99.90
7574;DHT22;3828;48.922;9.116;2022-07-04T01:17:20;20.20;99.90
7574;DHT22;3828;48.922;9.116;2022-07-04T01:19:47;20.20;99.90
7574;DHT22;3828;48.922;9.116;2022-07-04T01:22:18;20.20;99.90
7574;DHT22;3828;48.922;9.116;2022-07-04T01:24:46;20.90;99.90
7574;DHT22;3828;48.922;9.116;2022-07-04T01:27:12;20.00;99.90
7574;DHT22;3828;48.922;9.116;2022-07-04T01:29:39;19.90;99.90
7574;DHT22;3828;48.922;9.116;2022-07-04T01:32:07;21.10;99.90
7574;DHT22;3828;48.922;9.116;2022-07-04T01:34:37;19.90;99.90
7574;DHT22;3828;48.922;9.116;2022-07-04T01:37:04;20.00;99.90
7574;DHT22;3828;48.922;9.116;2022-07-04T01:39:33;20.10;99.90
7574;DHT22;3828;48.922;9.116;2022-07-04T01:41:59;21.30;99.90
7574;DHT22;3828;48.922;9.116;2022-07-04T01:44:26;19.80;99.90
7574;DHT22;3828;48.922;9.116;2022-07-04T01:46:54;23.50;99.90
7574;DHT22;3828;48.922;9.116;2022-07-04T01:49:20;19.70;99.90
7574;DHT22;3828;48.922;9.116;2022-07-04T01:51:49;19.70;99.90
7574;DHT22;3828;48.922;9.116;2022-07-04T01:54:16;19.70;99.90
7574;DHT22;3828;48.922;9.116;2022-07-04T01:56:44;18.10;99.90
7574;DHT22;3828;48.922;9.116;2022-07-04T01:59:11;20.00;99.90
7574;DHT22;3828;48.922;9.116;2022-07-04T02:01:38;19.60;99.90
7574;DHT22;3828;48.922;9.116;2022-07-04T02:04:06;20.10;99.90
7574;DHT22;3828;48.922;9.116;2022-07-04T02:06:33;19.50;99.90
7574;DHT22;3828;48.922;9.116;2022-07-04T02:09:00;22.30;99.90
7574;DHT22;3828;48.922;9.116;2022-07-04T02:11:45;19.50;99.90
7574;DHT22;3828;48.922;9.116;2022-07-04T02:14:30;19.50;99.90
7574;DHT22;3828;48.922;9.116;2022-07-04T02:16:57;19.50;99.90
7574;DHT22;3828;48.922;9.116;2022-07-04T02:19:29;19.40;99.90
7574;DHT22;3828;48.922;9.116;2022-07-04T02:21:56;20.40;99.90
7574;DHT22;3828;48.922;9.116;2022-07-04T02:24:23;19.30;99.90
7574;DHT22;3828;48.922;9.116;2022-07-04T02:26:51;19.30;99.90
7574;DHT22;3828;48.922;9.116;2022-07-04T02:29:18;19.30;99.90
7574;DHT22;3828;48.922;9.116;2022-07-04T02:31:45;19.30;99.90
7574;DHT22;3828;48.922;9.116;2022-07-04T02:34:12;19.20;99.90
7574;DHT22;3828;48.922;9.116;2022-07-04T02:37:01;19.20;99.90
7574;DHT22;3828;48.922;9.116;2022-07-04T02:39:28;19.20;99.90
7574;DHT22;3828;48.922;9.116;2022-07-04T02:41:56;19.20;99.90
7574;DHT22;3828;48.922;9.116;2022-07-04T02:44:23;22.50;99.90
7574;DHT22;3828;48.922;9.116;2022-07-04T02:46:50;20.80;99.90
7574;DHT22;3828;48.922;9.116;2022-07-04T02:49:17;19.10;99.90
7574;DHT22;3828;48.922;9.116;2022-07-04T02:51:44;19.00;99.90
7574;DHT22;3828;48.922;9.116;2022-07-04T02:54:14;19.00;99.90
7574;DHT22;3828;48.922;9.116;2022-07-04T02:56:41;18.90;99.90
7574;DHT22;3828;48.922;9.116;2022-07-04T02:59:09;18.90;99.90
7574;DHT22;3828;48.922;9.116;2022-07-04T03:01:36;20.60;99.90
7574;DHT22;3828;48.922;9.116;2022-07-04T03:04:04;18.80;99.90
7574;DHT22;3828;48.922;9.116;2022-07-04T03:06:31;18.80;99.90
7574;DHT22;3828;48.922;9.116;2022-07-04T03:09:01;18.70;99.90
7574;DHT22;3828;48.922;9.116;2022-07-04T03:11:34;18.70;99.90
7574;DHT22;3828;48.922;9.116;2022-07-04T03:14:01;18.70;99.90
7574;DHT22;3828;48.922;9.116;2022-07-04T03:16:29;21.50;99.90
7574;DHT22;3828;48.922;9.116;2022-07-04T03:18:56;20.90;99.90
7574;DHT22;3828;48.922;9.116;2022-07-04T03:21:32;20.00;99.90
7574;DHT22;3828;48.922;9.116;2022-07-04T03:23:59;18.40;99.90
7574;DHT22;3828;48.922;9.116;2022-07-04T03:26:27;18.50;99.90
7574;DHT22;3828;48.922;9.116;2022-07-04T03:28:55;20.30;99.90
7574;DHT22;3828;48.922;9.116;2022-07-04T03:31:22;18.40;99.90
7574;DHT22;3828;48.922;9.116;2022-07-04T03:33:51;19.60;99.90
7574;DHT22;3828;48.922;9.116;2022-07-04T03:36:19;18.20;99.90
7574;DHT22;3828;48.922;9.116;2022-07-04T03:38:46;18.20;99.90
7574;DHT22;3828;48.922;9.116;2022-07-04T03:41:13;21.30;99.90
7574;DHT22;3828;48.922;9.116;2022-07-04T03:43:40;18.10;99.90
7574;DHT22;3828;48.922;9.116;2022-07-04T03:46:07;18.10;99.90
7574;DHT22;3828;48.922;9.116;2022-07-04T03:48:34;18.30;99.90
7574;DHT22;3828;48.922;9.116;2022-07-04T03:51:03;20.50;99.90
7574;DHT22;3828;48.922;9.116;2022-07-04T03:53:30;18.10;99.90
7574;DHT22;3828;48.922;9.116;2022-07-04T03:55:57;18.10;99.90
7574;DHT22;3828;48.922;9.116;2022-07-04T03:58:24;19.10;99.90
7574;DHT22;3828;48.922;9.116;2022-07-04T04:00:51;18.10;99.90
7574;DHT22;3828;48.922;9.116;2022-07-04T04:03:17;18.10;99.90
7574;DHT22;3828;48.922;9.116;2022-07-04T04:06:03;17.80;99.90
7574;DHT22;3828;48.922;9.116;2022-07-04T04:08:30;17.80;99.90
7574;DHT22;3828;48.922;9.116;2022-07-04T04:10:57;17.80;99.90
7574;DHT22;3828;48.922;9.116;2022-07-04T04:13:24;17.80;99.90
7574;DHT22;3828;48.922;9.116;2022-07-04T04:15:51;17.80;99.90
7574;DHT22;3828;48.922;9.116;2022-07-04T04:18:18;18.60;99.90
7574;DHT22;3828;48.922;9.116;2022-07-04T04:20:45;19.60;99.90
7574;DHT22;3828;48.922;9.116;2022-07-04T04:23:13;20.50;99.90
7574;DHT22;3828;48.922;9.116;2022-07-04T04:25:40;17.80;99.90
7574;DHT22;3828;48.922;9.116;2022-07-04T04:28:07;20.90;99.90
7574;DHT22;3828;48.922;9.116;2022-07-04T04:30:34;17.80;99.90
7574;DHT22;3828;48.922;9.116;2022-07-04T04:33:00;17.90;99.90
7574;DHT22;3828;48.922;9.116;2022-07-04T04:35:27;18.00;99.90
7574;DHT22;3828;48.922;9.116;2022-07-04T04:37:54;18.00;99.90
7574;DHT22;3828;48.922;9.116;2022-07-04T04:40:22;19.50;99.90
7574;DHT22;3828;48.922;9.116;2022-07-04T04:42:49;19.30;99.90
7574;DHT22;3828;48.922;9.116;2022-07-04T04:45:16;20.20;99.90
7574;DHT22;3828;48.922;9.116;2022-07-04T04:47:43;18.40;99.90
7574;DHT22;3828;48.922;9.116;2022-07-04T04:50:11;18.40;99.90
7574;DHT22;3828;48.922;9.116;2022-07-04T04:52:40;18.50;99.90
7574;DHT22;3828;48.922;9.116;2022-07-04T04:55:08;20.00;99.90
7574;DHT22;3828;48.922;9.116;2022-07-04T04:57:36;18.50;99.90
7574;DHT22;3828;48.922;9.116;2022-07-04T05:00:04;18.50;99.90
7574;DHT22;3828;48.922;9.116;2022-07-04T05:02:50;18.50;99.90
7574;DHT22;3828;48.922;9.116;2022-07-04T05:05:31;18.40;99.90
7574;DHT22;3828;48.922;9.116;2022-07-04T05:07:57;18.40;99.90
7574;DHT22;3828;48.922;9.116;2022-07-04T05:10:24;20.10;99.90
7574;DHT22;3828;48.922;9.116;2022-07-04T05:12:53;18.40;99.90
7574;DHT22;3828;48.922;9.116;2022-07-04T05:15:20;20.10;99.90
7574;DHT22;3828;48.922;9.116;2022-07-04T05:17:47;18.50;99.90
7574;DHT22;3828;48.922;9.116;2022-07-04T05:20:14;18.50;99.90
7574;DHT22;3828;48.922;9.116;2022-07-04T05:22:41;18.50;99.90
7574;DHT22;3828;48.922;9.116;2022-07-04T05:25:08;18.50;99.90
7574;DHT22;3828;48.922;9.116;2022-07-04T05:27:35;18.50;99.90
7574;DHT22;3828;48.922;9.116;2022-07-04T05:30:05;21.50;99.90
7574;DHT22;3828;48.922;9.116;2022-07-04T05:32:32;18.50;99.90
7574;DHT22;3828;48.922;9.116;2022-07-04T05:34:59;21.00;99.90
7574;DHT22;3828;48.922;9.116;2022-07-04T05:37:26;18.70;99.90
7574;DHT22;3828;48.922;9.116;2022-07-04T05:39:52;20.70;99.90
7574;DHT22;3828;48.922;9.116;2022-07-04T05:42:19;22.00;99.90
7574;DHT22;3828;48.922;9.116;2022-07-04T05:44:46;19.00;99.90
7574;DHT22;3828;48.922;9.116;2022-07-04T05:47:14;19.00;99.90
7574;DHT22;3828;48.922;9.116;2022-07-04T05:49:41;19.10;99.90
7574;DHT22;3828;48.922;9.116;2022-07-04T05:52:08;19.30;99.90
7574;DHT22;3828;48.922;9.116;2022-07-04T05:54:35;19.40;99.90
7574;DHT22;3828;48.922;9.116;2022-07-04T05:57:02;19.60;99.90
7574;DHT22;3828;48.922;9.116;2022-07-04T05:59:28;19.70;99.90
7574;DHT22;3828;48.922;9.116;2022-07-04T06:01:55;19.80;99.90
7574;DHT22;3828;48.922;9.116;2022-07-04T06:04:23;22.10;99.90
7574;DHT22;3828;48.922;9.116;2022-07-04T06:06:51;20.00;99.90
7574;DHT22;3828;48.922;9.116;2022-07-04T06:09:18;23.50;99.90
7574;DHT22;3828;48.922;9.116;2022-07-04T06:11:45;20.20;99.90
7574;DHT22;3828;48.922;9.116;2022-07-04T06:14:12;20.20;99.90
7574;DHT22;3828;48.922;9.116;2022-07-04T06:16:38;20.20;99.90
7574;DHT22;3828;48.922;9.116;2022-07-04T06:19:05;20.20;99.90
7574;DHT22;3828;48.922;9.116;2022-07-04T06:21:33;20.30;99.90
7574;DHT22;3828;48.922;9.116;2022-07-04T06:24:00;20.30;99.90
7574;DHT22;3828;48.922;9.116;2022-07-04T06:26:28;20.40;99.90
7574;DHT22;3828;48.922;9.116;2022-07-04T06:28:55;22.20;99.90
7574;DHT22;3828;48.922;9.116;2022-07-04T06:31:22;22.00;99.90
7574;DHT22;3828;48.922;9.116;2022-07-04T06:33:49;20.50;99.90
7574;DHT22;3828;48.922;9.116;2022-07-04T06:36:35;21.00;99.90
7574;DHT22;3828;48.922;9.116;2022-07-04T06:39:02;21.20;99.90
7574;DHT22;3828;48.922;9.116;2022-07-04T06:41:29;20.80;99.90
7574;DHT22;3828;48.922;9.116;2022-07-04T06:43:55;20.80;99.90
7574;DHT22;3828;48.922;9.116;2022-07-04T06:46:22;21.80;99.90
7574;DHT22;3828;48.922;9.116;2022-07-04T06:48:49;21.00;99.90
7574;DHT22;3828;48.922;9.116;2022-07-04T06:51:16;21.00;99.90
7574;DHT22;3828;48.922;9.116;2022-07-04T06:53:44;22.30;99.90
7574;DHT22;3828;48.922;9.116;2022-07-04T06:56:11;21.10;99.90
7574;DHT22;3828;48.922;9.116;2022-07-04T06:58:38;22.20;99.90
7574;DHT22;3828;48.922;9.116;2022-07-04T07:01:05;21.30;99.90
7574;DHT22;3828;48.922;9.116;2022-07-04T07:03:32;21.30;99.90
7574;DHT22;3828;48.922;9.116;2022-07-04T07:05:58;21.40;99.90
7574;DHT22;3828;48.922;9.116;2022-07-04T07:08:27;21.40;99.90
7574;DHT22;3828;48.922;9.116;2022-07-04T07:10:55;21.40;99.90
7574;DHT22;3828;48.922;9.116;2022-07-04T07:13:22;21.50;99.90
7574;DHT22;3828;48.922;9.116;2022-07-04T07:15:49;21.70;99.90
7574;DHT22;3828;48.922;9.116;2022-07-04T07:18:15;21.70;99.90
7574;DHT22;3828;48.922;9.116;2022-07-04T07:20:42;23.00;99.90
7574;DHT22;3828;48.922;9.116;2022-07-04T07:23:09;24.80;99.90
7574;DHT22;3828;48.922;9.116;2022-07-04T07:25:36;22.20;99.90
7574;DHT22;3828;48.922;9.116;2022-07-04T07:28:04;21.60;99.90
7574;DHT22;3828;48.922;9.116;2022-07-04T07:30:31;21.70;99.90
7574;DHT22;3828;48.922;9.116;2022-07-04T07:32:58;22.70;99.90
7574;DHT22;3828;48.922;9.116;2022-07-04T07:35:25;21.80;99.90
7574;DHT22;3828;48.922;9.116;2022-07-04T07:37:52;21.80;99.90
7574;DHT22;3828;48.922;9.116;2022-07-04T07:40:19;22.00;99.90
7574;DHT22;3828;48.922;9.116;2022-07-04T07:42:47;21.80;99.90
7574;DHT22;3828;48.922;9.116;2022-07-04T07:45:15;21.90;99.90
7574;DHT22;3828;48.922;9.116;2022-07-04T07:47:42;21.90;99.90
7574;DHT22;3828;48.922;9.116;2022-07-04T07:50:09;21.70;99.90
7574;DHT22;3828;48.922;9.116;2022-07-04T07:52:36;22.60;99.90
7574;DHT22;3828;48.922;9.116;2022-07-04T07:55:10;21.90;99.90
7574;DHT22;3828;48.922;9.116;2022-07-04T07:57:39;20.20;99.90
7574;DHT22;3828;48.922;9.116;2022-07-04T08:00:15;21.90;99.90
7574;DHT22;3828;48.922;9.116;2022-07-04T08:02:42;21.80;99.90
7574;DHT22;3828;48.922;9.116;2022-07-04T08:05:29;21.80;99.90
7574;DHT22;3828;48.922;9.116;2022-07-04T08:07:57;22.10;99.90
7574;DHT22;3828;48.922;9.116;2022-07-04T08:10:34;21.90;99.90
7574;DHT22;3828;48.922;9.116;2022-07-04T08:13:04;22.00;99.90
7574;DHT22;3828;48.922;9.116;2022-07-04T08:15:39;22.00;99.90
7574;DHT22;3828;48.922;9.116;2022-07-04T08:18:07;21.90;99.90
7574;DHT22;3828;48.922;9.116;2022-07-04T08:20:37;22.00;99.90
7574;DHT22;3828;48.922;9.116;2022-07-04T08:23:11;22.00;99.90
7574;DHT22;3828;48.922;9.116;2022-07-04T08:25:38;22.00;99.90
7574;DHT22;3828;48.922;9.116;2022-07-04T08:28:05;22.30;99.90
7574;DHT22;3828;48.922;9.116;2022-07-04T08:30:32;22.50;99.90
7574;DHT22;3828;48.922;9.116;2022-07-04T08:33:00;22.70;99.90
7574;DHT22;3828;48.922;9.116;2022-07-04T08:35:28;24.20;99.90
7574;DHT22;3828;48.922;9.116;2022-07-04T08:37:55;24.20;99.90
7574;DHT22;3828;48.922;9.116;2022-07-04T08:40:22;23.80;99.90
7574;DHT22;3828;48.922;9.116;2022-07-04T08:42:50;22.90;99.90
7574;DHT22;3828;48.922;9.116;2022-07-04T08:45:18;23.90;99.90
7574;DHT22;3828;48.922;9.116;2022-07-04T08:47:49;23.20;99.90
7574;DHT22;3828;48.922;9.116;2022-07-04T08:50:22;24.20;99.90
7574;DHT22;3828;48.922;9.116;2022-07-04T08:52:54;23.50;99.90
7574;DHT22;3828;48.922;9.116;2022-07-04T08:55:23;23.30;99.90
7574;DHT22;3828;48.922;9.116;2022-07-04T08:58:08;23.20;99.90
7574;DHT22;3828;48.922;9.116;2022-07-04T09:00:57;25.80;99.90
7574;DHT22;3828;48.922;9.116;2022-07-04T09:03:24;23.50;99.90
7574;DHT22;3828;48.922;9.116;2022-07-04T09:05:53;23.50;99.90
7574;DHT22;3828;48.922;9.116;2022-07-04T09:08:21;23.50;99.90
7574;DHT22;3828;48.922;9.116;2022-07-04T09:10:48;23.40;99.90
7574;DHT22;3828;48.922;9.116;2022-07-04T09:13:16;23.60;99.90
7574;DHT22;3828;48.922;9.116;2022-07-04T09:15:46;23.80;99.90
7574;DHT22;3828;48.922;9.116;2022-07-04T09:18:24;23.90;99.90
7574;DHT22;3828;48.922;9.116;2022-07-04T09:20:53;24.10;99.90
7574;DHT22;3828;48.922;9.116;2022-07-04T09:23:21;24.20;99.90
7574;DHT22;3828;48.922;9.116;2022-07-04T09:25:49;24.30;99.90
7574;DHT22;3828;48.922;9.116;2022-07-04T09:28:32;26.10;99.90
7574;DHT22;3828;48.922;9.116;2022-07-04T09:30:58;26.20;99.90
7574;DHT22;3828;48.922;9.116;2022-07-04T09:33:44;24.30;99.90
7574;DHT22;3828;48.922;9.116;2022-07-04T09:36:13;24.80;99.90
7574;DHT22;3828;48.922;9.116;2022-07-04T09:38:40;24.80;99.90
7574;DHT22;3828;48.922;9.116;2022-07-04T09:41:07;26.20;99.90
7574;DHT22;3828;48.922;9.116;2022-07-04T09:44:03;25.50;99.90
7574;DHT22;3828;48.922;9.116;2022-07-04T09:46:30;25.70;99.90
7574;DHT22;3828;48.922;9.116;2022-07-04T09:48:57;26.20;99.90
7574;DHT22;3828;48.922;9.116;2022-07-04T09:51:40;26.50;99.90
7574;DHT22;3828;48.922;9.116;2022-07-04T09:54:20;27.60;99.90
7574;DHT22;3828;48.922;9.116;2022-07-04T09:56:49;26.70;99.90
7574;DHT22;3828;48.922;9.116;2022-07-04T09:59:17;26.60;99.90
7574;DHT22;3828;48.922;9.116;2022-07-04T10:01:44;28.70;99.90
7574;DHT22;3828;48.922;9.116;2022-07-04T10:04:10;26.90;99.90
7574;DHT22;3828;48.922;9.116;2022-07-04T10:06:42;27.20;99.90
7574;DHT22;3828;48.922;9.116;2022-07-04T10:09:11;27.30;99.90
7574;DHT22;3828;48.922;9.116;2022-07-04T10:11:40;28.70;99.90
7574;DHT22;3828;48.922;9.116;2022-07-04T10:14:09;27.40;99.90
7574;DHT22;3828;48.922;9.116;2022-07-04T10:16:37;28.40;99.90
7574;DHT22;3828;48.922;9.116;2022-07-04T10:19:05;28.00;99.90
7574;DHT22;3828;48.922;9.116;2022-07-04T10:21:32;27.80;99.90
7574;DHT22;3828;48.922;9.116;2022-07-04T10:24:01;30.00;99.90
7574;DHT22;3828;48.922;9.116;2022-07-04T10:26:30;27.60;99.90
7574;DHT22;3828;48.922;9.116;2022-07-04T10:28:57;29.00;99.90
7574;DHT22;3828;48.922;9.116;2022-07-04T10:31:26;28.00;99.90
7574;DHT22;3828;48.922;9.116;2022-07-04T10:33:55;28.20;99.90
7574;DHT22;3828;48.922;9.116;2022-07-04T10:36:24;28.70;99.90
7574;DHT22;3828;48.922;9.116;2022-07-04T10:38:56;28.70;99.90
7574;DHT22;3828;48.922;9.116;2022-07-04T10:41:27;28.60;99.90
7574;DHT22;3828;48.922;9.116;2022-07-04T10:44:02;31.00;99.90
7574;DHT22;3828;48.922;9.116;2022-07-04T10:46:44;29.30;99.90
7574;DHT22;3828;48.922;9.116;2022-07-04T10:49:19;29.60;99.90
7574;DHT22;3828;48.922;9.116;2022-07-04T10:51:49;29.80;99.90
7574;DHT22;3828;48.922;9.116;2022-07-04T10:54:18;31.10;99.90
7574;DHT22;3828;48.922;9.116;2022-07-04T10:56:51;29.80;99.90
7574;DHT22;3828;48.922;9.116;2022-07-04T10:59:21;30.00;99.90
7574;DHT22;3828;48.922;9.116;2022-07-04T11:01:53;30.30;99.90
7574;DHT22;3828;48.922;9.116;2022-07-04T11:04:50;30.80;99.90
7574;DHT22;3828;48.922;9.116;2022-07-04T11:07:18;31.20;99.90
7574;DHT22;3828;48.922;9.116;2022-07-04T11:09:45;31.10;99.90
7574;DHT22;3828;48.922;9.116;2022-07-04T11:12:14;30.70;99.90
7574;DHT22;3828;48.922;9.116;2022-07-04T11:14:42;30.80;99.90
7574;DHT22;3828;48.922;9.116;2022-07-04T11:17:12;30.90;99.90
7574;DHT22;3828;48.922;9.116;2022-07-04T11:19:40;30.70;99.90
7574;DHT22;3828;48.922;9.116;2022-07-04T11:22:08;30.80;99.90
7574;DHT22;3828;48.922;9.116;2022-07-04T11:24:37;30.80;99.90
7574;DHT22;3828;48.922;9.116;2022-07-04T11:27:06;30.80;99.90
7574;DHT22;3828;48.922;9.116;2022-07-04T11:29:35;30.90;99.90
7574;DHT22;3828;48.922;9.116;2022-07-04T11:32:02;31.10;99.90
7574;DHT22;3828;48.922;9.116;2022-07-04T11:34:32;31.20;99.90
7574;DHT22;3828;48.922;9.116;2022-07-04T11:37:01;30.70;99.90
7574;DHT22;3828;48.922;9.116;2022-07-04T11:39:28;31.00;99.90
7574;DHT22;3828;48.922;9.116;2022-07-04T11:41:55;31.80;99.90
7574;DHT22;3828;48.922;9.116;2022-07-04T11:44:41;31.90;99.90
7574;DHT22;3828;48.922;9.116;2022-07-04T11:47:33;31.80;99.90
7574;DHT22;3828;48.922;9.116;2022-07-04T11:50:01;31.50;99.90
7574;DHT22;3828;48.922;9.116;2022-07-04T11:52:30;31.60;99.90
7574;DHT22;3828;48.922;9.116;2022-07-04T11:55:00;32.10;99.10
7574;DHT22;3828;48.922;9.116;2022-07-04T11:57:28;31.70;99.60
7574;DHT22;3828;48.922;9.116;2022-07-04T12:00:01;31.80;99.80
7574;DHT22;3828;48.922;9.116;2022-07-04T12:02:32;32.10;99.90
7574;DHT22;3828;48.922;9.116;2022-07-04T12:05:00;32.50;99.90
7574;DHT22;3828;48.922;9.116;2022-07-04T12:07:30;32.40;99.90
7574;DHT22;3828;48.922;9.116;2022-07-04T12:10:07;32.10;99.90
7574;DHT22;3828;48.922;9.116;2022-07-04T12:12:35;32.10;99.90
7574;DHT22;3828;48.922;9.116;2022-07-04T12:15:05;32.20;99.90
7574;DHT22;3828;48.922;9.116;2022-07-04T12:17:34;32.50;99.90
7574;DHT22;3828;48.922;9.116;2022-07-04T12:20:03;33.60;99.90
7574;DHT22;3828;48.922;9.116;2022-07-04T12:22:36;32.10;99.90
7574;DHT22;3828;48.922;9.116;2022-07-04T12:25:06;32.20;99.90
7574;DHT22;3828;48.922;9.116;2022-07-04T12:27:33;32.50;99.90
7574;DHT22;3828;48.922;9.116;2022-07-04T12:30:04;32.60;99.90
7574;DHT22;3828;48.922;9.116;2022-07-04T12:32:47;32.70;99.30
7574;DHT22;3828;48.922;9.116;2022-07-04T12:35:38;32.90;99.90
7574;DHT22;3828;48.922;9.116;2022-07-04T12:38:06;33.70;99.90
7574;DHT22;3828;48.922;9.116;2022-07-04T12:40:34;33.00;97.90
7574;DHT22;3828;48.922;9.116;2022-07-04T12:43:02;33.50;99.90
7574;DHT22;3828;48.922;9.116;2022-07-04T12:45:45;33.70;99.90
7574;DHT22;3828;48.922;9.116;2022-07-04T12:48:23;33.60;98.80
7574;DHT22;3828;48.922;9.116;2022-07-04T12:50:51;34.20;99.30
7574;DHT22;3828;48.922;9.116;2022-07-04T12:53:19;34.50;99.80
7574;DHT22;3828;48.922;9.116;2022-07-04T12:55:48;34.30;98.00
7574;DHT22;3828;48.922;9.116;2022-07-04T12:58:15;33.90;99.80
7574;DHT22;3828;48.922;9.116;2022-07-04T13:00:43;33.90;97.80
7574;DHT22;3828;48.922;9.116;2022-07-04T13:03:11;33.70;97.50
7574;DHT22;3828;48.922;9.116;2022-07-04T13:05:38;33.40;97.90
7574;DHT22;3828;48.922;9.116;2022-07-04T13:08:05;33.60;98.10
7574;DHT22;3828;48.922;9.116;2022-07-04T13:10:38;33.70;98.50
7574;DHT22;3828;48.922;9.116;2022-07-04T13:13:05;32.90;98.00
7574;DHT22;3828;48.922;9.116;2022-07-04T13:15:32;33.20;99.80
7574;DHT22;3828;48.922;9.116;2022-07-04T13:18:06;33.60;97.80
7574;DHT22;3828;48.922;9.116;2022-07-04T13:20:33;34.10;98.70
7574;DHT22;3828;48.922;9.116;2022-07-04T13:23:00;32.90;97.30
7574;DHT22;3828;48.922;9.116;2022-07-04T13:25:26;31.60;97.40
7574;DHT22;3828;48.922;9.116;2022-07-04T13:27:53;33.70;99.90
7574;DHT22;3828;48.922;9.116;2022-07-04T13:30:20;30.80;99.90
7574;DHT22;3828;48.922;9.116;2022-07-04T13:32:47;30.90;99.90
7574;DHT22;3828;48.922;9.116;2022-07-04T13:35:15;30.60;99.90
7574;DHT22;3828;48.922;9.116;2022-07-04T13:37:42;30.20;99.70
7574;DHT22;3828;48.922;9.116;2022-07-04T13:40:09;30.70;99.90
7574;DHT22;3828;48.922;9.116;2022-07-04T13:42:36;31.00;99.90
7574;DHT22;3828;48.922;9.116;2022-07-04T13:45:21;31.20;99.90
7574;DHT22;3828;48.922;9.116;2022-07-04T13:47:47;31.30;99.90
7574;DHT22;3828;48.922;9.116;2022-07-04T13:50:15;31.40;99.80
7574;DHT22;3828;48.922;9.116;2022-07-04T13:52:43;30.80;98.50
7574;DHT22;3828;48.922;9.116;2022-07-04T13:55:10;31.80;99.90
7574;DHT22;3828;48.922;9.116;2022-07-04T13:57:37;32.60;99.90
7574;DHT22;3828;48.922;9.116;2022-07-04T14:00:05;33.00;98.00
7574;DHT22;3828;48.922;9.116;2022-07-04T14:02:32;33.40;97.80
7574;DHT22;3828;48.922;9.116;2022-07-04T14:04:59;33.10;97.20
7574;DHT22;3828;48.922;9.116;2022-07-04T14:07:27;32.50;97.40
7574;DHT22;3828;48.922;9.116;2022-07-04T14:09:54;32.30;98.80
7574;DHT22;3828;48.922;9.116;2022-07-04T14:12:21;32.70;98.80
7574;DHT22;3828;48.922;9.116;2022-07-04T14:14:48;32.80;97.70
7574;DHT22;3828;48.922;9.116;2022-07-04T14:17:14;32.70;98.40
7574;DHT22;3828;48.922;9.116;2022-07-04T14:19:41;32.40;97.20
7574;DHT22;3828;48.922;9.116;2022-07-04T14:22:08;32.60;97.60
7574;DHT22;3828;48.922;9.116;2022-07-04T14:24:36;32.40;97.80
7574;DHT22;3828;48.922;9.116;2022-07-04T14:27:03;33.20;98.30
7574;DHT22;3828;48.922;9.116;2022-07-04T14:29:30;32.00;97.50
7574;DHT22;3828;48.922;9.116;2022-07-04T14:31:59;31.90;98.70
7574;DHT22;3828;48.922;9.116;2022-07-04T14:34:26;31.50;99.80
7574;DHT22;3828;48.922;9.116;2022-07-04T14:36:53;31.70;99.80
7574;DHT22;3828;48.922;9.116;2022-07-04T14:39:20;32.00;98.00
7574;DHT22;3828;48.922;9.116;2022-07-04T14:41:48;33.40;99.30
7574;DHT22;3828;48.922;9.116;2022-07-04T14:44:16;31.50;99.70
7574;DHT22;3828;48.922;9.116;2022-07-04T14:46:43;30.90;98.40
7574;DHT22;3828;48.922;9.116;2022-07-04T14:49:10;31.00;98.60
7574;DHT22;3828;48.922;9.116;2022-07-04T14:51:37;30.80;97.80
7574;DHT22;3828;48.922;9.116;2022-07-04T14:54:06;30.90;98.90
7574;DHT22;3828;48.922;9.116;2022-07-04T14:56:33;31.40;98.30
7574;DHT22;3828;48.922;9.116;2022-07-04T14:59:02;31.20;98.20
7574;DHT22;3828;48.922;9.116;2022-07-04T15:01:29;31.70;98.60
7574;DHT22;3828;48.922;9.116;2022-07-04T15:03:56;32.00;98.70
7574;DHT22;3828;48.922;9.116;2022-07-04T15:06:22;32.20;97.70
7574;DHT22;3828;48.922;9.116;2022-07-04T15:08:49;32.00;96.90
7574;DHT22;3828;48.922;9.116;2022-07-04T15:11:17;31.60;95.60
7574;DHT22;3828;48.922;9.116;2022-07-04T15:13:44;31.30;97.00
7574;DHT22;3828;48.922;9.116;2022-07-04T15:16:12;31.50;95.50
7574;DHT22;3828;48.922;9.116;2022-07-04T15:18:39;30.50;97.50
7574;DHT22;3828;48.922;9.116;2022-07-04T15:21:06;30.30;96.50
7574;DHT22;3828;48.922;9.116;2022-07-04T15:23:50;30.10;96.30
7574;DHT22;3828;48.922;9.116;2022-07-04T15:26:34;29.90;98.30
7574;DHT22;3828;48.922;9.116;2022-07-04T15:29:01;29.70;97.80
7574;DHT22;3828;48.922;9.116;2022-07-04T15:31:29;29.40;97.70
7574;DHT22;3828;48.922;9.116;2022-07-04T15:33:56;29.40;97.50
7574;DHT22;3828;48.922;9.116;2022-07-04T15:36:25;29.30;96.00
7574;DHT22;3828;48.922;9.116;2022-07-04T15:38:52;29.20;97.50
7574;DHT22;3828;48.922;9.116;2022-07-04T15:41:19;29.10;96.80
7574;DHT22;3828;48.922;9.116;2022-07-04T15:43:45;29.70;96.90
7574;DHT22;3828;48.922;9.116;2022-07-04T15:46:12;28.80;97.00
7574;DHT22;3828;48.922;9.116;2022-07-04T15:48:40;29.90;98.00
7574;DHT22;3828;48.922;9.116;2022-07-04T15:51:07;28.60;96.50
7574;DHT22;3828;48.922;9.116;2022-07-04T15:53:34;28.60;96.10
7574;DHT22;3828;48.922;9.116;2022-07-04T15:56:01;29.20;93.50
7574;DHT22;3828;48.922;9.116;2022-07-04T15:58:28;27.80;93.60
7574;DHT22;3828;48.922;9.116;2022-07-04T16:00:54;27.70;94.60
7574;DHT22;3828;48.922;9.116;2022-07-04T16:03:21;27.60;96.50
7574;DHT22;3828;48.922;9.116;2022-07-04T16:05:49;27.50;96.80
7574;DHT22;3828;48.922;9.116;2022-07-04T16:08:16;27.50;96.50
7574;DHT22;3828;48.922;9.116;2022-07-04T16:10:43;27.60;97.50
7574;DHT22;3828;48.922;9.116;2022-07-04T16:13:09;27.60;96.20